Time;durP1;ratioP1;P1;durP2;ratioP2;P2;SDS_P1;SDS_P2;PMS_P1;PMS_P2;Temp;Humidity;BMP_temperature;BMP_pressure;BME280_temperature;BME280_humidity;BME280_pressure;Samples;Min_cycle;Max_cycle;Signal;HPM_P1;HPM_P2
2024/04/06 00:01:15;;;;;;;16.57;10.60;;;12.00;85.50;;;;;;4919592;29;20543;-86
2024/04/06 00:03:40;;;;;;;16.07;9.93;;;12.00;85.60;;;;;;4921451;29;20212;-86
2024/04/06 00:06:07;;;;;;;14.60;9.87;;;12.00;85.80;;;;;;4919235;29;20199;-85
2024/04/06 00:08:32;;;;;;;20.23;10.23;;;12.00;85.90;;;;;;4921305;29;20173;-84
2024/04/06 00:10:58;;;;;;;16.97;9.50;;;11.90;86.10;;;;;;4921197;29;20675;-84
2024/04/06 00:13:23;;;;;;;17.60;9.97;;;11.80;86.40;;;;;;4921465;29;20629;-86
2024/04/06 00:15:49;;;;;;;16.73;9.67;;;11.80;86.50;;;;;;4921099;29;20661;-85
2024/04/06 00:18:15;;;;;;;16.43;9.97;;;11.80;86.50;;;;;;4921516;29;20187;-85
2024/04/06 00:20:40;;;;;;;13.97;9.23;;;11.80;86.40;;;;;;4921780;29;20181;-85
2024/04/06 00:23:06;;;;;;;12.50;9.33;;;11.80;86.50;;;;;;4921003;29;20212;-84
2024/04/06 00:25:31;;;;;;;17.93;9.97;;;11.80;86.50;;;;;;4921017;29;20173;-87
2024/04/06 00:27:57;;;;;;;12.43;9.93;;;11.80;86.60;;;;;;4919698;29;20184;-86
2024/04/06 00:30:22;;;;;;;17.93;10.33;;;11.70;86.70;;;;;;4919412;29;20280;-87
2024/04/06 00:32:48;;;;;;;20.50;9.50;;;11.80;86.80;;;;;;4919401;29;20578;-85
2024/04/06 00:35:15;;;;;;;11.20;8.63;;;11.70;86.70;;;;;;4919107;29;20181;-84
2024/04/06 00:37:41;;;;;;;16.90;9.30;;;11.70;86.90;;;;;;4920941;29;20197;-85
2024/04/06 00:40:07;;;;;;;19.07;9.87;;;11.70;86.90;;;;;;4921116;29;20181;-85
2024/04/06 00:42:32;;;;;;;15.73;9.40;;;11.70;86.90;;;;;;4919957;29;20189;-85
2024/04/06 00:44:58;;;;;;;14.03;8.50;;;11.70;86.80;;;;;;4921331;29;20177;-87
2024/04/06 00:47:23;;;;;;;26.40;10.37;;;11.70;86.90;;;;;;4919209;29;20172;-85
2024/04/06 00:49:49;;;;;;;11.97;8.47;;;11.70;87.00;;;;;;4920951;29;20181;-84
2024/04/06 00:52:14;;;;;;;17.00;9.07;;;11.70;87.10;;;;;;4919067;29;20191;-84
2024/04/06 00:54:40;;;;;;;15.70;9.03;;;11.60;87.40;;;;;;4919224;29;20204;-85
2024/04/06 00:57:07;;;;;;;14.00;8.70;;;11.60;87.40;;;;;;4919134;29;20605;-84
2024/04/06 00:59:34;;;;;;;14.67;8.87;;;11.70;87.50;;;;;;4918984;29;20188;-87
2024/04/06 01:02:00;;;;;;;14.90;8.53;;;11.60;87.50;;;;;;4921066;29;20185;-86
2024/04/06 01:04:26;;;;;;;18.60;8.10;;;11.60;87.80;;;;;;4919137;29;20223;-87
2024/04/06 01:06:51;;;;;;;15.40;8.10;;;11.50;88.00;;;;;;4921139;29;20176;-87
2024/04/06 01:09:16;;;;;;;18.07;8.23;;;11.50;88.30;;;;;;4919118;29;20180;-87
2024/04/06 01:11:42;;;;;;;19.10;8.17;;;11.40;88.60;;;;;;4920371;29;20184;-85
2024/04/06 01:14:08;;;;;;;13.37;7.47;;;11.50;88.60;;;;;;4919284;29;20207;-87
2024/04/06 01:16:34;;;;;;;15.53;8.73;;;11.40;88.50;;;;;;4919940;29;20552;-86
2024/04/06 01:18:59;;;;;;;18.13;8.53;;;11.40;88.60;;;;;;4924639;29;20216;-87
2024/04/06 01:21:26;;;;;;;13.20;7.80;;;11.50;88.60;;;;;;4923263;29;20176;-86
2024/04/06 01:23:53;;;;;;;15.43;8.17;;;11.40;88.70;;;;;;4922906;29;20212;-85
2024/04/06 01:26:20;;;;;;;17.33;7.67;;;11.60;88.50;;;;;;4923484;29;20212;-85
2024/04/06 01:28:45;;;;;;;20.23;8.40;;;11.70;88.30;;;;;;4924930;29;20177;-85
2024/04/06 01:31:11;;;;;;;14.73;7.83;;;11.70;88.20;;;;;;4922749;29;20564;-85
2024/04/06 01:33:39;;;;;;;17.37;8.00;;;11.70;88.00;;;;;;4923899;29;20210;-84
2024/04/06 01:36:05;;;;;;;15.90;7.67;;;11.70;87.80;;;;;;4924853;29;20185;-86
2024/04/06 01:38:30;;;;;;;13.57;7.93;;;11.70;87.80;;;;;;4925024;29;20312;-84
2024/04/06 01:40:56;;;;;;;16.90;9.53;;;11.60;87.80;;;;;;4923452;29;20662;-86
2024/04/06 01:43:21;;;;;;;17.70;8.17;;;11.60;88.10;;;;;;4924412;29;20222;-85
2024/04/06 01:45:47;;;;;;;12.70;8.57;;;11.50;88.40;;;;;;4924199;29;20187;-85
2024/04/06 01:48:12;;;;;;;20.03;8.10;;;11.50;88.70;;;;;;4922942;29;20173;-85
2024/04/06 01:50:38;;;;;;;16.63;8.47;;;11.50;88.60;;;;;;4922582;29;20263;-85
2024/04/06 01:53:03;;;;;;;17.00;8.50;;;11.70;88.30;;;;;;4924476;29;20196;-87
2024/04/06 01:55:29;;;;;;;16.53;8.97;;;11.70;88.00;;;;;;4924289;29;20181;-85
2024/04/06 01:57:55;;;;;;;16.27;12.97;;;11.70;88.10;;;;;;4924751;29;20236;-86
2024/04/06 02:00:20;;;;;;;17.30;12.27;;;11.70;88.10;;;;;;4924223;29;20563;-85
2024/04/06 02:02:46;;;;;;;17.00;13.33;;;11.70;88.00;;;;;;4923622;29;20243;-86
2024/04/06 02:05:11;;;;;;;20.13;14.03;;;11.70;88.00;;;;;;4924198;29;20622;-86
2024/04/06 02:07:37;;;;;;;25.23;12.97;;;11.70;88.10;;;;;;4922676;29;20173;-84
2024/04/06 02:10:02;;;;;;;19.07;13.07;;;11.70;88.10;;;;;;4924708;29;20197;-84
2024/04/06 02:12:28;;;;;;;16.20;12.37;;;11.80;88.00;;;;;;4922613;29;20228;-85
2024/04/06 02:14:53;;;;;;;14.90;12.23;;;11.80;87.90;;;;;;4924272;29;20549;-85
2024/04/06 02:17:19;;;;;;;15.97;13.00;;;11.80;87.90;;;;;;4922373;29;20200;-85
2024/04/06 02:19:44;;;;;;;19.47;13.27;;;11.80;87.70;;;;;;4922592;29;20187;-86
2024/04/06 02:22:10;;;;;;;16.60;13.20;;;11.80;87.70;;;;;;4924263;29;20180;-84
2024/04/06 02:24:36;;;;;;;17.63;13.57;;;11.80;87.70;;;;;;4924120;29;20209;-85
2024/04/06 02:27:02;;;;;;;21.40;13.60;;;11.80;87.90;;;;;;4922313;29;20184;-86
2024/04/06 02:29:29;;;;;;;14.67;13.17;;;11.80;87.70;;;;;;4921694;29;20259;-85
2024/04/06 02:31:54;;;;;;;22.10;13.93;;;11.80;87.60;;;;;;4924299;29;20222;-85
2024/04/06 02:34:20;;;;;;;17.00;13.00;;;11.80;87.50;;;;;;4922083;29;20268;-84
2024/04/06 02:36:45;;;;;;;22.57;14.33;;;11.90;87.50;;;;;;4922044;29;20177;-84
2024/04/06 02:39:11;;;;;;;16.60;13.10;;;11.80;87.70;;;;;;4923777;29;20181;-84
2024/04/06 02:41:37;;;;;;;19.27;13.07;;;11.80;87.80;;;;;;4922480;29;20185;-85
2024/04/06 02:44:03;;;;;;;21.07;14.07;;;11.80;87.70;;;;;;4922855;29;20224;-85
2024/04/06 02:46:29;;;;;;;15.03;13.40;;;11.80;87.60;;;;;;4924395;29;20237;-86
2024/04/06 02:48:54;;;;;;;20.50;12.27;;;11.70;87.70;;;;;;4922586;29;20669;-86
2024/04/06 02:51:20;;;;;;;12.70;7.57;;;11.70;87.70;;;;;;4922193;29;20264;-85
2024/04/06 02:53:45;;;;;;;9.57;7.40;;;11.70;87.90;;;;;;4921985;29;20196;-85
2024/04/06 02:56:11;;;;;;;17.30;8.07;;;11.60;87.90;;;;;;4923530;29;20555;-85
2024/04/06 02:58:37;;;;;;;13.37;8.17;;;11.70;87.80;;;;;;4923591;29;20677;-86
2024/04/06 03:01:03;;;;;;;19.77;8.87;;;11.60;87.70;;;;;;4922129;29;20223;-85
2024/04/06 03:03:28;;;;;;;18.37;8.50;;;11.60;87.80;;;;;;4923631;29;20203;-86
2024/04/06 03:05:54;;;;;;;14.00;7.77;;;11.60;87.80;;;;;;4923228;29;20661;-86
2024/04/06 03:08:19;;;;;;;13.80;7.37;;;11.60;87.80;;;;;;4921492;29;20173;-85
2024/04/06 03:10:45;;;;;;;15.90;7.47;;;11.60;87.90;;;;;;4923289;29;20172;-86
2024/04/06 03:13:10;;;;;;;16.47;8.53;;;11.60;88.00;;;;;;4922638;29;20232;-85
2024/04/06 03:15:36;;;;;;;14.63;8.30;;;11.50;88.20;;;;;;4923273;29;20181;-85
2024/04/06 03:18:01;;;;;;;16.20;7.97;;;11.50;88.30;;;;;;4921960;29;20638;-85
2024/04/06 03:20:27;;;;;;;16.90;7.70;;;11.50;88.30;;;;;;4921717;29;20189;-87
2024/04/06 03:23:03;;;;;;;16.57;8.10;;;11.50;88.40;;;;;;4922016;29;20681;-84
2024/04/06 03:25:30;;;;;;;19.57;7.93;;;11.50;88.40;;;;;;4921325;29;20185;-86
2024/04/06 03:27:56;;;;;;;12.17;6.63;;;11.50;88.50;;;;;;4919204;29;20188;-87
2024/04/06 03:30:23;;;;;;;18.47;8.50;;;11.40;88.70;;;;;;4922719;29;20177;-86
2024/04/06 03:32:49;;;;;;;10.97;7.10;;;11.30;88.90;;;;;;4921486;29;20252;-85
2024/04/06 03:35:15;;;;;;;14.60;7.43;;;11.20;89.10;;;;;;4923140;29;20180;-86
2024/04/06 03:37:41;;;;;;;18.57;8.20;;;11.10;89.30;;;;;;4922571;29;20705;-85
2024/04/06 03:40:09;;;;;;;15.00;7.40;;;11.00;89.30;;;;;;4921424;29;20302;-87
2024/04/06 03:42:35;;;;;;;11.47;7.13;;;10.90;89.60;;;;;;4921523;29;20232;-87
2024/04/06 03:45:00;;;;;;;22.23;8.20;;;10.80;89.80;;;;;;4923314;29;20185;-86
2024/04/06 03:47:27;;;;;;;16.13;7.83;;;10.80;89.80;;;;;;4922998;29;20704;-85
2024/04/06 03:49:53;;;;;;;13.50;7.20;;;10.80;89.90;;;;;;4921426;29;20183;-86
2024/04/06 03:52:19;;;;;;;16.37;8.63;;;10.80;90.20;;;;;;4921338;29;20181;-86
2024/04/06 03:54:44;;;;;;;15.97;7.70;;;10.90;90.00;;;;;;4923080;29;20268;-86
2024/04/06 03:57:10;;;;;;;14.63;7.00;;;11.00;89.90;;;;;;4923633;29;20177;-87
2024/04/06 03:59:35;;;;;;;13.10;6.90;;;10.80;89.90;;;;;;4923093;29;20189;-87
2024/04/06 04:02:01;;;;;;;18.33;6.90;;;10.80;90.20;;;;;;4921143;29;20645;-86
2024/04/06 04:04:26;;;;;;;14.27;7.37;;;10.80;90.10;;;;;;4920789;29;20204;-86
2024/04/06 04:06:52;;;;;;;17.20;7.40;;;10.70;90.30;;;;;;4922713;29;20173;-85
2024/04/06 04:09:17;;;;;;;19.90;8.10;;;10.70;90.30;;;;;;4921111;29;20637;-85
2024/04/06 04:11:43;;;;;;;17.73;7.80;;;10.80;90.20;;;;;;4921163;29;20181;-86
2024/04/06 04:14:09;;;;;;;16.47;6.97;;;10.60;90.20;;;;;;4923011;29;20253;-86
2024/04/06 04:16:35;;;;;;;12.50;7.80;;;10.60;90.30;;;;;;4922716;29;20601;-85
2024/04/06 04:19:02;;;;;;;15.50;8.20;;;10.60;90.40;;;;;;4922076;29;20280;-87
2024/04/06 04:21:27;;;;;;;18.63;12.37;;;10.50;90.30;;;;;;4922311;29;20185;-85
2024/04/06 04:23:54;;;;;;;28.10;12.77;;;10.50;90.40;;;;;;4922589;29;20673;-87
2024/04/06 04:26:19;;;;;;;19.30;12.50;;;10.50;90.50;;;;;;4920216;29;20185;-86
2024/04/06 04:28:45;;;;;;;17.27;12.70;;;10.40;90.60;;;;;;4921005;29;20672;-85
2024/04/06 04:31:18;;;;;;;13.83;12.60;;;10.50;90.70;;;;;;4922781;29;20641;-86
2024/04/06 04:33:44;;;;;;;18.73;13.00;;;10.50;90.70;;;;;;4922315;29;20204;-85
2024/04/06 04:36:13;;;;;;;21.23;14.30;;;10.50;90.70;;;;;;4920852;29;20185;-86
2024/04/06 04:38:41;;;;;;;15.57;12.90;;;10.50;90.70;;;;;;4920859;29;20187;-87
2024/04/06 04:41:07;;;;;;;21.70;13.93;;;10.50;90.70;;;;;;4920692;29;20184;-88
2024/04/06 04:43:33;;;;;;;17.03;14.23;;;10.50;90.80;;;;;;4922330;29;20209;-88
2024/04/06 04:45:58;;;;;;;21.00;14.50;;;10.50;90.90;;;;;;4920167;29;20185;-86
2024/04/06 04:48:24;;;;;;;16.37;14.30;;;10.50;90.90;;;;;;4922830;29;20551;-85
2024/04/06 04:50:50;;;;;;;16.17;13.50;;;10.50;91.10;;;;;;4920310;29;20187;-85
2024/04/06 04:53:16;;;;;;;14.93;13.37;;;10.40;91.00;;;;;;4921605;29;20701;-87
2024/04/06 04:55:42;;;;;;;18.77;13.80;;;10.30;91.00;;;;;;4920788;29;20209;-87
2024/04/06 04:58:08;;;;;;;20.10;13.13;;;10.30;91.10;;;;;;4920053;29;20205;-87
2024/04/06 05:00:34;;;;;;;16.17;12.50;;;10.30;91.30;;;;;;4920282;29;20184;-85
2024/04/06 05:03:00;;;;;;;17.47;11.40;;;10.30;91.40;;;;;;4920916;29;20685;-85
2024/04/06 05:05:25;;;;;;;20.87;12.20;;;10.30;91.60;;;;;;4921963;29;20220;-87
2024/04/06 05:07:51;;;;;;;12.77;10.90;;;10.40;91.70;;;;;;4920674;29;20180;-87
2024/04/06 05:10:16;;;;;;;15.67;11.30;;;10.40;91.70;;;;;;4920666;29;20172;-87
2024/04/06 05:12:42;;;;;;;17.47;11.33;;;10.40;91.70;;;;;;4922126;29;20200;-86
2024/04/06 05:15:07;;;;;;;13.77;10.93;;;10.50;91.80;;;;;;4920794;29;20192;-87
2024/04/06 05:17:34;;;;;;;12.87;7.50;;;10.50;91.80;;;;;;4921105;29;20181;-86
2024/04/06 05:20:00;;;;;;;13.50;6.93;;;10.50;91.90;;;;;;4920589;29;20201;-87
2024/04/06 05:22:26;;;;;;;13.47;7.47;;;10.60;91.80;;;;;;4920758;29;20181;-87
2024/04/06 05:24:51;;;;;;;17.57;7.97;;;10.50;91.80;;;;;;4922213;29;20229;-87
2024/04/06 05:27:17;;;;;;;13.40;7.23;;;10.60;91.80;;;;;;4922078;29;20255;-86
2024/04/06 05:29:42;;;;;;;14.77;7.27;;;10.60;91.80;;;;;;4918325;29;20233;-85
2024/04/06 05:32:08;;;;;;;15.77;8.00;;;10.60;91.80;;;;;;4922168;29;20521;-86
2024/04/06 05:34:34;;;;;;;15.13;8.60;;;10.60;91.80;;;;;;4921778;29;20196;-85
2024/04/06 05:36:59;;;;;;;17.53;7.87;;;10.60;91.80;;;;;;4922378;29;20188;-87
2024/04/06 05:39:25;;;;;;;19.07;7.70;;;10.60;91.90;;;;;;4921801;29;20192;-86
2024/04/06 05:41:51;;;;;;;15.63;7.63;;;10.60;91.90;;;;;;4922072;29;20198;-86
2024/04/06 05:44:16;;;;;;;15.27;8.03;;;10.70;92.00;;;;;;4920136;29;20227;-87
2024/04/06 05:46:42;;;;;;;11.50;7.67;;;10.70;92.10;;;;;;4920603;29;20180;-86
2024/04/06 05:49:07;;;;;;;17.97;8.10;;;10.80;92.20;;;;;;4921579;29;20211;-87
2024/04/06 05:51:33;;;;;;;14.77;8.07;;;10.80;92.20;;;;;;4920989;29;20212;-85
2024/04/06 05:54:00;;;;;;;14.97;8.17;;;10.80;92.20;;;;;;4920643;29;20220;-87
2024/04/06 05:56:26;;;;;;;12.70;7.47;;;10.80;92.20;;;;;;4922323;29;20177;-87
2024/04/06 05:58:51;;;;;;;13.77;8.27;;;10.90;92.20;;;;;;4920766;29;20332;-87
2024/04/06 06:01:17;;;;;;;18.50;8.03;;;11.00;92.20;;;;;;4920397;29;20181;-85
2024/04/06 06:03:42;;;;;;;15.70;7.97;;;10.90;92.30;;;;;;4922249;29;20212;-85
2024/04/06 06:06:08;;;;;;;14.63;8.50;;;10.90;92.30;;;;;;4925386;29;20195;-87
2024/04/06 06:08:34;;;;;;;13.17;7.33;;;10.90;92.40;;;;;;4924531;29;20177;-86
2024/04/06 06:10:59;;;;;;;15.90;8.07;;;10.90;92.40;;;;;;4924809;29;20185;-87
2024/04/06 06:13:25;;;;;;;15.90;7.83;;;10.90;92.50;;;;;;4925464;29;20676;-86
2024/04/06 06:15:50;;;;;;;20.47;8.83;;;11.00;92.50;;;;;;4925462;29;20212;-86
2024/04/06 06:18:16;;;;;;;10.30;6.70;;;11.10;92.50;;;;;;4923983;29;20564;-87
2024/04/06 06:20:41;;;;;;;13.13;7.47;;;11.30;92.10;;;;;;4924139;29;20196;-86
2024/04/06 06:23:07;;;;;;;10.47;6.97;;;11.30;91.80;;;;;;4925587;29;20205;-85
2024/04/06 06:25:33;;;;;;;14.10;7.10;;;11.30;91.70;;;;;;4924132;29;20184;-86
2024/04/06 06:27:59;;;;;;;12.80;6.47;;;11.30;91.60;;;;;;4924532;29;20188;-87
2024/04/06 06:30:26;;;;;;;11.73;7.90;;;11.30;91.60;;;;;;4923746;29;20204;-87
2024/04/06 06:32:52;;;;;;;12.37;7.90;;;11.30;91.60;;;;;;4925338;29;20197;-87
2024/04/06 06:35:18;;;;;;;14.70;7.87;;;11.30;91.70;;;;;;4924050;29;20184;-86
2024/04/06 06:37:45;;;;;;;15.87;8.33;;;11.30;91.80;;;;;;4925109;29;20177;-87
2024/04/06 06:40:10;;;;;;;15.77;8.13;;;11.50;91.80;;;;;;4923557;29;20184;-87
2024/04/06 06:42:36;;;;;;;16.57;7.00;;;11.70;91.70;;;;;;4924893;29;20193;-86
2024/04/06 06:45:05;;;;;;;15.03;10.10;;;11.80;91.30;;;;;;4924945;29;20220;-87
2024/04/06 06:47:34;;;;;;;13.63;10.20;;;11.80;91.20;;;;;;4925358;29;20751;-87
2024/04/06 06:50:00;;;;;;;18.67;10.60;;;12.00;91.10;;;;;;4925089;29;20176;-87
2024/04/06 06:52:26;;;;;;;19.23;10.63;;;12.00;91.00;;;;;;4923628;29;20315;-87
2024/04/06 06:54:51;;;;;;;14.37;11.00;;;12.10;90.80;;;;;;4923385;29;20253;-87
2024/04/06 06:57:17;;;;;;;16.33;11.53;;;12.20;90.70;;;;;;4924596;29;20765;-87
2024/04/06 06:59:42;;;;;;;12.00;10.77;;;12.30;90.50;;;;;;4924711;29;20189;-87
2024/04/06 07:02:08;;;;;;;12.57;11.03;;;12.50;90.20;;;;;;4924906;29;20185;-88
2024/04/06 07:04:36;;;;;;;11.47;10.30;;;12.60;90.20;;;;;;4922768;29;20216;-86
2024/04/06 07:07:03;;;;;;;13.30;11.20;;;12.80;90.30;;;;;;4923456;29;20173;-84
2024/04/06 07:09:28;;;;;;;15.53;10.43;;;12.90;90.00;;;;;;4919083;29;20232;-84
2024/04/06 07:11:55;;;;;;;13.33;11.90;;;12.90;90.00;;;;;;4919450;29;20181;-87
2024/04/06 07:14:21;;;;;;;13.73;10.93;;;13.10;89.80;;;;;;4919007;29;20694;-87
2024/04/06 07:16:48;;;;;;;18.30;11.10;;;13.20;89.70;;;;;;4918068;29;20196;-87
2024/04/06 07:19:13;;;;;;;15.57;11.00;;;13.30;89.70;;;;;;4919291;29;20264;-86
2024/04/06 07:21:39;;;;;;;15.53;11.53;;;13.40;89.30;;;;;;4917910;29;20276;-86
2024/04/06 07:24:06;;;;;;;14.47;11.93;;;13.60;89.20;;;;;;4917336;29;20234;-84
2024/04/06 07:26:31;;;;;;;13.97;11.93;;;13.70;89.00;;;;;;4917624;29;20188;-86
2024/04/06 07:28:57;;;;;;;13.37;11.47;;;13.80;89.30;;;;;;4918632;29;20252;-85
2024/04/06 07:31:23;;;;;;;16.33;12.70;;;13.80;89.10;;;;;;4917577;29;20676;-85
2024/04/06 07:33:50;;;;;;;20.33;13.45;;;13.90;88.90;;;;;;4918736;29;20233;-86
2024/04/06 07:36:16;;;;;;;13.88;11.68;;;14.00;89.00;;;;;;4918657;29;20268;-85
2024/04/06 07:38:42;;;;;;;15.40;11.68;;;14.20;89.00;;;;;;4918983;29;20192;-86
2024/04/06 07:41:08;;;;;;;14.82;13.23;;;14.20;89.10;;;;;;4917454;29;20189;-88
2024/04/06 07:43:34;;;;;;;14.88;12.95;;;14.20;88.70;;;;;;4917020;29;20236;-85
2024/04/06 07:45:59;;;;;;;13.45;12.05;;;14.30;89.10;;;;;;4917499;29;20216;-86
2024/04/06 07:48:25;;;;;;;13.98;12.57;;;14.40;89.40;;;;;;4918712;29;20264;-87
2024/04/06 07:50:51;;;;;;;14.30;12.98;;;14.60;89.60;;;;;;4917238;29;20241;-86
2024/04/06 07:53:17;;;;;;;12.93;10.32;;;14.80;89.40;;;;;;4918698;29;20195;-86
2024/04/06 07:55:43;;;;;;;16.65;10.85;;;14.80;88.90;;;;;;4916998;29;20559;-86
2024/04/06 07:58:08;;;;;;;13.35;11.35;;;14.80;88.80;;;;;;4918705;29;20209;-86
2024/04/06 08:00:34;;;;;;;17.77;11.18;;;14.80;88.80;;;;;;4918310;29;20181;-86
2024/04/06 08:03:00;;;;;;;14.13;11.70;;;14.80;88.60;;;;;;4916731;29;20197;-86
2024/04/06 08:05:26;;;;;;;21.42;12.48;;;14.80;88.70;;;;;;4918412;29;20200;-86
2024/04/06 08:07:51;;;;;;;15.68;12.30;;;14.90;88.60;;;;;;4918433;29;20177;-86
2024/04/06 08:10:19;;;;;;;12.95;11.77;;;14.90;88.50;;;;;;4918368;29;20576;-86
2024/04/06 08:12:45;;;;;;;13.00;11.80;;;14.90;88.70;;;;;;4916928;29;20204;-86
2024/04/06 08:15:11;;;;;;;14.38;12.30;;;15.00;89.10;;;;;;4918283;29;20173;-86
2024/04/06 08:17:52;;;;;;;13.93;12.50;;;15.10;89.00;;;;;;4917040;29;20310;-85
2024/04/06 08:20:18;;;;;;;13.82;12.38;;;15.10;88.70;;;;;;4916892;29;20175;-86
2024/04/06 08:22:43;;;;;;;13.93;12.60;;;15.20;88.70;;;;;;4917540;29;20643;-86
2024/04/06 08:25:10;;;;;;;14.57;12.43;;;15.10;88.20;;;;;;4917459;29;20187;-86
2024/04/06 08:27:37;;;;;;;15.65;13.07;;;15.20;88.70;;;;;;4917201;29;20188;-88
2024/04/06 08:30:04;;;;;;;14.73;11.90;;;15.30;88.80;;;;;;4922002;29;20223;-85
2024/04/06 08:32:31;;;;;;;12.77;11.48;;;15.30;89.00;;;;;;4923408;29;20177;-85
2024/04/06 08:34:58;;;;;;;14.98;12.95;;;15.30;88.80;;;;;;4916220;29;20613;-86
2024/04/06 08:37:24;;;;;;;14.45;12.95;;;15.40;88.90;;;;;;4916271;29;20177;-86
2024/04/06 08:39:49;;;;;;;13.70;12.27;;;15.50;88.60;;;;;;4917496;29;20191;-87
2024/04/06 08:42:18;;;;;;;16.35;12.25;;;15.70;88.90;;;;;;4916354;29;20732;-86
2024/04/06 08:44:45;;;;;;;15.05;13.65;;;15.70;88.40;;;;;;4915959;29;20240;-87
2024/04/06 08:47:13;;;;;;;17.50;13.48;;;15.60;88.20;;;;;;4917544;29;20255;-86
2024/04/06 08:49:40;;;;;;;15.98;13.32;;;15.70;88.50;;;;;;4916051;29;20649;-86
2024/04/06 08:52:07;;;;;;;13.05;11.52;;;15.80;88.60;;;;;;4917335;29;20180;-86
2024/04/06 08:54:32;;;;;;;13.85;12.45;;;15.90;88.70;;;;;;4915987;29;20688;-86
2024/04/06 08:56:59;;;;;;;13.13;11.75;;;15.80;88.20;;;;;;4917497;29;20177;-87
2024/04/06 08:59:25;;;;;;;13.07;11.50;;;15.90;88.10;;;;;;4917454;29;20177;-86
2024/04/06 09:01:50;;;;;;;13.10;11.43;;;16.00;88.10;;;;;;4915886;29;20188;-86
2024/04/06 09:04:16;;;;;;;12.65;11.27;;;16.10;88.20;;;;;;4916931;29;20208;-85
2024/04/06 09:06:43;;;;;;;11.93;10.73;;;16.20;88.10;;;;;;4917129;29;20185;-87
2024/04/06 09:09:10;;;;;;;13.63;11.35;;;16.20;87.70;;;;;;4915765;29;20181;-87
2024/04/06 09:11:41;;;;;;;14.05;12.63;;;16.30;87.40;;;;;;4915865;29;20176;-87
2024/04/06 09:14:07;;;;;;;13.65;12.30;;;16.10;87.60;;;;;;4916210;29;20208;-87
2024/04/06 09:16:36;;;;;;;14.82;12.80;;;16.20;87.50;;;;;;4916372;29;20776;-91
2024/04/06 09:19:02;;;;;;;16.92;15.35;;;16.30;87.30;;;;;;4916197;29;20234;-92
2024/04/06 09:21:28;;;;;;;17.42;15.80;;;16.50;87.40;;;;;;4917500;29;20193;-91
2024/04/06 09:23:54;;;;;;;18.02;16.38;;;16.70;87.50;;;;;;4915832;29;20209;-92
2024/04/06 09:26:21;;;;;;;17.60;15.90;;;16.90;86.80;;;;;;4917236;29;20173;-92
2024/04/06 09:28:53;;;;;;;19.27;17.38;;;16.90;86.60;;;;;;4917366;29;20173;-92
2024/04/06 09:31:22;;;;;;;19.63;16.73;;;16.80;86.30;;;;;;4917387;29;20173;-91
2024/04/06 09:33:54;;;;;;;17.48;15.98;;;16.90;86.40;;;;;;4916575;29;20689;-92
2024/04/06 09:36:20;;;;;;;17.38;15.73;;;17.00;86.30;;;;;;4918340;29;20165;-92
2024/04/06 09:38:48;;;;;;;18.77;17.13;;;17.30;86.30;;;;;;4920591;29;20188;-90
2024/04/06 09:41:18;;;;;;;16.65;13.77;;;17.40;85.60;;;;;;4924108;29;20180;-92
2024/04/06 09:43:54;;;;;;;16.48;13.48;;;17.40;85.50;;;;;;4926735;29;20216;-93
2024/04/06 09:46:20;;;;;;;16.58;14.98;;;17.50;85.40;;;;;;4928258;29;20161;-93
2024/04/06 09:48:49;;;;;;;16.58;15.02;;;17.50;84.60;;;;;;4925324;29;20176;-93
2024/04/06 09:51:15;;;;;;;16.52;15.02;;;17.70;84.40;;;;;;4938914;29;20184;-93
2024/04/06 09:53:43;;;;;;;18.45;15.23;;;17.60;84.30;;;;;;4938652;29;20236;-93
2024/04/06 09:56:10;;;;;;;17.90;16.20;;;17.70;84.40;;;;;;4933961;29;20279;-93
2024/04/06 09:58:37;;;;;;;17.70;15.90;;;17.80;84.10;;;;;;4938374;28;20188;-94
2024/04/06 10:01:07;;;;;;;17.10;15.35;;;17.90;84.00;;;;;;4937511;29;20244;-94
2024/04/06 10:03:48;;;;;;;18.50;16.73;;;18.00;84.00;;;;;;4932370;29;20216;-93
2024/04/06 10:06:18;;;;;;;19.27;17.20;;;18.10;83.10;;;;;;4935226;29;20204;-92
2024/04/06 10:08:59;;;;;;;19.15;17.45;;;18.10;82.70;;;;;;4933642;29;20180;-93
2024/04/06 10:11:27;;;;;;;19.30;17.52;;;18.00;82.50;;;;;;4936604;29;20172;-93
2024/04/06 10:14:00;;;;;;;18.30;16.70;;;18.00;83.40;;;;;;4935116;29;20240;-89
2024/04/06 10:16:26;;;;;;;19.05;17.33;;;18.00;82.40;;;;;;4922503;29;20169;-86
2024/04/06 10:18:54;;;;;;;18.85;16.98;;;18.30;81.70;;;;;;4921034;29;20192;-86
2024/04/06 10:21:20;;;;;;;17.65;15.90;;;18.60;82.10;;;;;;4920927;29;20207;-86
2024/04/06 10:23:49;;;;;;;18.33;16.60;;;18.80;82.70;;;;;;4919243;29;20204;-86
2024/04/06 10:26:16;;;;;;;19.02;16.98;;;18.90;80.70;;;;;;4921587;29;20177;-85
2024/04/06 10:28:43;;;;;;;19.35;17.77;;;19.20;79.10;;;;;;4920684;29;20191;-86
2024/04/06 10:31:08;;;;;;;18.83;17.30;;;19.20;78.40;;;;;;4920177;29;20181;-86
2024/04/06 10:33:37;;;;;;;19.65;17.85;;;19.20;80.30;;;;;;4922717;29;20197;-86
2024/04/06 10:36:08;;;;;;;19.58;17.75;;;19.20;79.30;;;;;;4921370;29;20208;-86
2024/04/06 10:38:33;;;;;;;18.70;17.05;;;19.10;78.70;;;;;;4922523;29;20169;-87
2024/04/06 10:40:59;;;;;;;19.15;17.30;;;19.20;79.20;;;;;;4922281;29;20176;-86
2024/04/06 10:43:25;;;;;;;17.30;15.95;;;19.10;78.80;;;;;;4924154;29;20212;-86
2024/04/06 10:45:53;;;;;;;18.58;17.10;;;19.30;78.80;;;;;;4921167;29;20180;-86
2024/04/06 10:48:19;;;;;;;18.00;16.13;;;19.50;78.30;;;;;;4922593;29;20184;-86
2024/04/06 10:50:46;;;;;;;18.35;16.85;;;19.50;78.10;;;;;;4922421;29;20181;-86
2024/04/06 10:53:11;;;;;;;17.15;15.50;;;19.50;76.50;;;;;;4921550;29;20208;-86
2024/04/06 10:55:37;;;;;;;17.27;15.57;;;19.70;77.60;;;;;;4919854;29;20646;-89
2024/04/06 10:58:04;;;;;;;16.40;15.00;;;20.10;76.90;;;;;;4918763;29;20189;-85
2024/04/06 11:00:31;;;;;;;16.67;15.30;;;20.30;76.00;;;;;;4920320;29;20173;-85
2024/04/06 11:03:03;;;;;;;18.33;16.88;;;20.40;75.40;;;;;;4920207;29;20211;-85
2024/04/06 11:05:30;;;;;;;18.13;16.92;;;20.30;74.00;;;;;;4919341;29;20203;-85
2024/04/06 11:07:56;;;;;;;18.45;17.05;;;20.30;74.50;;;;;;4919568;29;20173;-85
2024/04/06 11:10:22;;;;;;;18.10;16.90;;;20.30;74.90;;;;;;4919294;29;20188;-86
2024/04/06 11:12:47;;;;;;;19.13;17.52;;;20.20;73.80;;;;;;4920059;29;20201;-86
2024/04/06 11:15:13;;;;;;;23.20;19.55;;;20.30;75.10;;;;;;4920033;29;20268;-86
2024/04/06 11:17:39;;;;;;;18.83;17.40;;;19.90;74.10;;;;;;4919474;29;20191;-86
2024/04/06 11:20:06;;;;;;;18.52;17.08;;;19.80;75.30;;;;;;4919322;29;20599;-86
2024/04/06 11:22:32;;;;;;;22.17;16.23;;;20.00;74.00;;;;;;4918467;29;20192;-85
2024/04/06 11:24:58;;;;;;;17.48;16.27;;;19.70;75.40;;;;;;4917907;29;20215;-84
2024/04/06 11:27:25;;;;;;;17.52;16.20;;;19.70;74.80;;;;;;4918298;29;20264;-85
2024/04/06 11:29:52;;;;;;;17.30;16.02;;;19.70;75.00;;;;;;4918887;29;20177;-86
2024/04/06 11:32:19;;;;;;;17.95;16.65;;;19.70;75.50;;;;;;4917869;29;20181;-86
2024/04/06 11:34:45;;;;;;;17.98;16.63;;;19.50;75.20;;;;;;4919718;29;20181;-86
2024/04/06 11:37:11;;;;;;;18.33;16.70;;;19.60;75.50;;;;;;4917701;29;20276;-86
2024/04/06 11:39:37;;;;;;;18.88;17.38;;;19.70;75.20;;;;;;4918716;29;20176;-86
2024/04/06 11:42:02;;;;;;;18.05;16.70;;;19.60;74.90;;;;;;4918877;29;20177;-86
2024/04/06 11:44:28;;;;;;;18.52;17.13;;;19.70;74.60;;;;;;4917446;29;20693;-86
2024/04/06 11:46:53;;;;;;;18.25;16.95;;;19.80;75.20;;;;;;4918657;29;20174;-86
2024/04/06 11:49:19;;;;;;;18.20;16.75;;;19.80;76.00;;;;;;4919217;29;20191;-87
2024/04/06 11:51:44;;;;;;;17.10;15.95;;;19.80;75.60;;;;;;4918167;29;20216;-87
2024/04/06 11:54:10;;;;;;;17.15;15.95;;;19.90;75.70;;;;;;4918740;29;20200;-86
2024/04/06 11:56:35;;;;;;;17.75;16.30;;;19.90;74.90;;;;;;4918459;29;20189;-86
2024/04/06 11:59:01;;;;;;;18.67;17.08;;;20.10;74.30;;;;;;4918635;29;20251;-86
2024/04/06 12:01:26;;;;;;;18.10;16.77;;;20.30;73.20;;;;;;4917510;29;20228;-86
2024/04/06 12:03:52;;;;;;;19.73;17.85;;;20.20;72.90;;;;;;4917128;29;20219;-86
2024/04/06 12:06:23;;;;;;;20.08;18.55;;;20.20;72.90;;;;;;4918400;29;20616;-85
2024/04/06 12:08:49;;;;;;;21.35;19.58;;;20.20;72.00;;;;;;4916976;29;20653;-85
2024/04/06 12:11:15;;;;;;;21.98;20.17;;;20.10;72.40;;;;;;4918079;29;20660;-86
2024/04/06 12:13:40;;;;;;;21.70;19.92;;;20.20;72.20;;;;;;4916543;29;20204;-86
2024/04/06 12:16:06;;;;;;;20.40;18.75;;;20.20;72.30;;;;;;4917983;29;20177;-86
2024/04/06 12:18:32;;;;;;;20.27;18.58;;;20.20;73.00;;;;;;4918256;29;20204;-86
2024/04/06 12:20:57;;;;;;;20.38;18.60;;;20.20;74.30;;;;;;4918098;29;20183;-86
2024/04/06 12:23:23;;;;;;;19.58;18.05;;;20.20;74.70;;;;;;4916570;29;20696;-86
2024/04/06 12:25:48;;;;;;;18.40;17.15;;;20.20;73.50;;;;;;4916670;29;20256;-86